createdAt,value
2023-04-27T00:00:34.814Z,75.88
2023-04-27T00:01:30.002Z,76.25
2023-04-27T00:02:25.227Z,76.31
2023-04-27T00:03:20.654Z,76.20
2023-04-27T00:04:15.532Z,76.06
2023-04-27T00:05:10.684Z,75.99
2023-04-27T00:06:05.876Z,76.05
2023-04-27T00:07:00.900Z,76.17
2023-04-27T00:07:56.046Z,76.32
2023-04-27T00:08:51.239Z,76.43
2023-04-27T00:09:46.489Z,76.23
2023-04-27T00:10:41.551Z,76.25
2023-04-27T00:11:36.689Z,76.19
2023-04-27T00:12:31.869Z,76.23
2023-04-27T00:13:27.197Z,76.14
2023-04-27T00:14:22.128Z,76.11
2023-04-27T00:15:17.256Z,76.24
2023-04-27T00:16:12.597Z,76.38
2023-04-27T00:17:07.656Z,76.52
2023-04-27T00:18:02.893Z,76.58
2023-04-27T00:18:57.956Z,76.54
2023-04-27T00:19:53.114Z,76.68
2023-04-27T00:20:48.298Z,76.88
2023-04-27T00:21:43.459Z,76.84
2023-04-27T00:22:38.633Z,76.84
2023-04-27T00:23:33.784Z,76.78
2023-04-27T00:24:28.993Z,76.53
2023-04-27T00:25:24.101Z,76.24
2023-04-27T00:26:19.399Z,76.27
2023-04-27T00:27:14.418Z,76.30
2023-04-27T00:28:09.755Z,76.39
2023-04-27T00:29:04.618Z,76.44
2023-04-27T00:29:59.782Z,76.49
2023-04-27T00:30:54.912Z,76.52
2023-04-27T00:31:50.119Z,76.63
2023-04-27T00:32:45.243Z,76.74
2023-04-27T00:33:40.541Z,76.92
2023-04-27T00:34:35.578Z,76.79
2023-04-27T00:35:30.744Z,76.65
2023-04-27T00:36:25.997Z,76.71
2023-04-27T00:37:21.048Z,77.01
2023-04-27T00:38:16.219Z,77.16
2023-04-27T00:39:11.451Z,77.03
2023-04-27T00:40:06.409Z,76.89
2023-04-27T00:41:01.575Z,76.68
2023-04-27T00:41:56.738Z,76.63
2023-04-27T00:42:51.889Z,76.72
2023-04-27T00:43:47.032Z,76.68
2023-04-27T00:44:42.215Z,76.82
2023-04-27T00:45:37.350Z,76.86
2023-04-27T00:46:32.747Z,76.94
2023-04-27T00:47:27.713Z,77.06
2023-04-27T00:48:23.028Z,77.09
2023-04-27T00:49:17.901Z,77.22
2023-04-27T00:50:13.064Z,77.31
2023-04-27T00:51:08.193Z,77.56
2023-04-27T00:52:03.372Z,77.62
2023-04-27T00:52:58.597Z,77.60
2023-04-27T00:53:53.737Z,77.64
2023-04-27T00:54:48.907Z,77.67
2023-04-27T00:55:44.085Z,77.76
2023-04-27T00:56:39.354Z,78.07
2023-04-27T00:57:34.440Z,78.14
2023-04-27T00:58:29.779Z,78.02
2023-04-27T00:59:24.855Z,77.86
2023-04-27T01:00:20.020Z,77.81
2023-04-27T01:01:15.222Z,78.06
2023-04-27T01:02:10.375Z,78.08
2023-04-27T01:03:05.813Z,77.97
2023-04-27T01:04:00.834Z,77.79
2023-04-27T01:04:55.814Z,77.70
2023-04-27T01:05:50.924Z,77.51
2023-04-27T01:06:46.348Z,77.48
2023-04-27T01:07:41.250Z,77.36
2023-04-27T01:08:36.442Z,77.36
2023-04-27T01:09:31.579Z,77.43
2023-04-27T01:10:26.820Z,77.46
2023-04-27T01:11:22.022Z,77.59
2023-04-27T01:12:17.196Z,77.78
2023-04-27T01:13:12.355Z,77.92
2023-04-27T01:14:07.535Z,78.07
2023-04-27T01:15:02.681Z,78.16
2023-04-27T01:15:57.835Z,78.16
2023-04-27T01:16:53.135Z,78.18
2023-04-27T01:17:48.318Z,78.24
2023-04-27T01:18:43.322Z,78.34
2023-04-27T01:19:38.513Z,78.41
2023-04-27T01:20:33.638Z,78.50
2023-04-27T01:21:28.812Z,78.61
2023-04-27T01:22:23.996Z,78.73
2023-04-27T01:23:19.325Z,78.93
2023-04-27T01:24:14.338Z,79.21
2023-04-27T01:25:09.521Z,79.35
2023-04-27T01:26:04.660Z,79.41
2023-04-27T01:26:59.971Z,79.42
2023-04-27T01:27:55.093Z,79.46
2023-04-27T01:28:50.212Z,79.48
2023-04-27T01:29:45.370Z,79.56
2023-04-27T01:30:40.526Z,79.73
2023-04-27T01:31:35.746Z,79.68
2023-04-27T01:32:31.006Z,79.51
2023-04-27T01:33:25.979Z,79.13
2023-04-27T01:34:21.209Z,78.92
2023-04-27T01:35:16.347Z,78.62
2023-04-27T01:36:11.530Z,78.44
2023-04-27T01:37:06.788Z,78.32
2023-04-27T01:38:01.926Z,78.30
2023-04-27T01:38:56.919Z,78.28
2023-04-27T01:39:52.107Z,78.22
2023-04-27T01:40:47.232Z,78.11
2023-04-27T01:41:42.405Z,78.07
2023-04-27T01:42:37.743Z,78.11
2023-04-27T01:43:32.793Z,78.33
2023-04-27T01:44:27.940Z,78.53
2023-04-27T01:45:23.155Z,78.70
2023-04-27T01:46:18.334Z,78.96
2023-04-27T01:47:13.771Z,78.93
2023-04-27T01:48:08.697Z,78.96
2023-04-27T01:49:03.872Z,78.97
2023-04-27T01:49:59.028Z,79.09
2023-04-27T01:50:54.198Z,79.20
2023-04-27T01:51:49.325Z,79.10
2023-04-27T01:52:44.700Z,79.32
2023-04-27T01:53:39.712Z,79.27
2023-04-27T01:54:34.896Z,79.30
2023-04-27T01:55:30.063Z,79.22
2023-04-27T01:56:25.211Z,79.18
2023-04-27T01:57:20.631Z,79.19
2023-04-27T01:58:15.523Z,79.42
2023-04-27T01:59:10.680Z,79.40
2023-04-27T02:00:05.843Z,79.36
2023-04-27T02:01:00.980Z,79.22
2023-04-27T02:01:56.143Z,79.12
2023-04-27T02:02:51.495Z,79.06
2023-04-27T02:03:46.722Z,78.92
2023-04-27T02:04:41.644Z,78.72
2023-04-27T02:05:36.692Z,78.43
2023-04-27T02:06:31.832Z,78.16
2023-04-27T02:07:27.218Z,78.02
2023-04-27T02:08:22.229Z,78.10
2023-04-27T02:09:17.395Z,78.28
2023-04-27T02:10:12.568Z,78.36
2023-04-27T02:11:07.720Z,78.68
2023-04-27T02:12:03.079Z,78.96
2023-04-27T02:12:57.965Z,79.26
2023-04-27T02:13:53.102Z,79.70
2023-04-27T02:14:48.262Z,79.74
2023-04-27T02:15:43.488Z,79.55
2023-04-27T02:16:38.697Z,79.51
2023-04-27T02:17:34.056Z,79.37
2023-04-27T02:18:28.849Z,79.27
2023-04-27T02:19:23.972Z,79.06
2023-04-27T02:20:19.159Z,78.76
2023-04-27T02:21:14.307Z,78.88
2023-04-27T02:22:09.484Z,79.00
2023-04-27T02:23:04.514Z,78.91
2023-04-27T02:23:59.683Z,78.70
2023-04-27T02:24:54.865Z,78.70
2023-04-27T02:25:50.019Z,79.08
2023-04-27T02:26:45.300Z,79.41
2023-04-27T02:27:40.460Z,79.56
2023-04-27T02:28:35.463Z,79.82
2023-04-27T02:29:30.711Z,79.91
2023-04-27T02:30:25.736Z,80.04
2023-04-27T02:31:20.925Z,80.22
2023-04-27T02:32:16.062Z,80.40
2023-04-27T02:33:11.282Z,80.34
2023-04-27T02:34:06.421Z,80.22
2023-04-27T02:35:01.601Z,80.19
2023-04-27T02:35:56.757Z,80.21
2023-04-27T02:36:52.112Z,80.43
2023-04-27T02:37:47.103Z,80.50
2023-04-27T02:38:42.169Z,80.18
2023-04-27T02:39:37.309Z,79.87
2023-04-27T02:40:32.493Z,79.57
2023-04-27T02:41:27.623Z,79.39
2023-04-27T02:42:22.814Z,79.45
2023-04-27T02:43:17.828Z,79.46
2023-04-27T02:44:13.008Z,79.39
2023-04-27T02:45:08.168Z,79.24
2023-04-27T02:46:03.352Z,79.19
2023-04-27T02:46:58.711Z,79.26
2023-04-27T02:47:53.943Z,79.26
2023-04-27T02:48:48.864Z,79.20
2023-04-27T02:49:44.167Z,79.14
2023-04-27T02:50:39.329Z,79.39
2023-04-27T02:51:34.623Z,79.65
2023-04-27T02:52:29.601Z,79.73
2023-04-27T02:53:24.776Z,79.97
2023-04-27T02:54:19.911Z,80.01
2023-04-27T02:55:15.060Z,80.03
2023-04-27T02:56:10.202Z,80.02
2023-04-27T02:57:05.531Z,80.29
2023-04-27T02:58:00.667Z,80.47
2023-04-27T02:58:55.778Z,80.37
2023-04-27T02:59:50.846Z,80.23
2023-04-27T03:00:46.248Z,80.04
2023-04-27T03:01:41.288Z,80.03
2023-04-27T03:02:36.475Z,80.04
2023-04-27T03:03:31.622Z,80.14
2023-04-27T03:04:26.637Z,80.09
2023-04-27T03:05:21.844Z,80.07
2023-04-27T03:06:17.048Z,80.02
2023-04-27T03:07:12.050Z,79.89
2023-04-27T03:08:07.242Z,79.86
2023-04-27T03:09:02.387Z,79.86
2023-04-27T03:09:57.548Z,79.80
2023-04-27T03:10:52.711Z,79.83
2023-04-27T03:11:48.068Z,80.00
2023-04-27T03:12:43.049Z,79.95
2023-04-27T03:13:38.226Z,79.90
2023-04-27T03:14:33.365Z,79.95
2023-04-27T03:15:28.703Z,79.94
2023-04-27T03:16:23.729Z,79.94
2023-04-27T03:17:18.856Z,80.00
2023-04-27T03:18:14.030Z,80.15
2023-04-27T03:19:09.216Z,80.29
2023-04-27T03:20:04.352Z,80.35
2023-04-27T03:20:59.535Z,80.43
2023-04-27T03:21:54.845Z,80.25
2023-04-27T03:22:49.878Z,80.06
2023-04-27T03:23:45.031Z,79.86
2023-04-27T03:24:40.224Z,79.63
2023-04-27T03:25:35.552Z,79.49
2023-04-27T03:26:30.801Z,79.38
2023-04-27T03:27:25.787Z,79.39
2023-04-27T03:28:20.996Z,79.41
2023-04-27T03:29:16.167Z,79.69
2023-04-27T03:30:11.329Z,79.76
2023-04-27T03:31:06.489Z,79.82
2023-04-27T03:32:01.889Z,80.01
2023-04-27T03:32:56.811Z,80.08
2023-04-27T03:33:52.088Z,80.27
2023-04-27T03:34:47.198Z,80.58
2023-04-27T03:35:42.509Z,80.82
2023-04-27T03:36:37.720Z,80.89
2023-04-27T03:37:32.772Z,80.82
2023-04-27T03:38:27.930Z,80.58
2023-04-27T03:39:23.107Z,80.64
2023-04-27T03:40:18.231Z,80.76
2023-04-27T03:41:13.479Z,80.80
2023-04-27T03:42:08.601Z,80.95
2023-04-27T03:43:03.750Z,81.21
2023-04-27T03:43:59.006Z,81.09
2023-04-27T03:44:54.126Z,80.90
2023-04-27T03:45:49.628Z,80.75
2023-04-27T03:46:44.464Z,80.75
2023-04-27T03:47:39.699Z,81.07
2023-04-27T03:48:34.800Z,81.31
2023-04-27T03:49:30.031Z,81.34
2023-04-27T03:50:25.271Z,81.27
2023-04-27T03:51:20.393Z,81.21
2023-04-27T03:52:16.934Z,81.10
2023-04-27T03:53:11.193Z,81.15
2023-04-27T03:54:06.005Z,81.24
2023-04-27T03:55:01.207Z,81.24
2023-04-27T03:55:56.599Z,81.24
2023-04-27T03:56:51.683Z,81.20
2023-04-27T03:57:46.915Z,81.35
2023-04-27T03:58:42.137Z,81.32
2023-04-27T03:59:37.390Z,81.24
2023-04-27T04:00:32.597Z,81.26
2023-04-27T04:01:27.864Z,81.31
2023-04-27T04:02:23.170Z,81.37
2023-04-27T04:03:18.480Z,81.42
2023-04-27T04:04:13.678Z,81.47
2023-04-27T04:05:08.982Z,81.38
2023-04-27T04:06:04.990Z,81.43
2023-04-27T04:06:59.453Z,81.36
2023-04-27T04:07:54.740Z,81.18
2023-04-27T04:08:50.044Z,80.89
2023-04-27T04:09:45.297Z,80.77
2023-04-27T04:10:40.590Z,80.48
2023-04-27T04:11:35.936Z,80.53
2023-04-27T04:12:31.147Z,80.32
2023-04-27T04:13:26.565Z,80.47
2023-04-27T04:14:21.757Z,80.64
2023-04-27T04:15:17.087Z,80.54
2023-04-27T04:16:12.628Z,80.49
2023-04-27T04:17:07.916Z,80.69
2023-04-27T04:18:03.141Z,80.78
2023-04-27T04:18:58.392Z,80.81
2023-04-27T04:19:53.721Z,80.83
2023-04-27T04:20:49.245Z,80.75
2023-04-27T04:21:44.378Z,80.75
2023-04-27T04:22:39.743Z,80.76
2023-04-27T04:23:34.929Z,80.69
2023-04-27T04:24:30.315Z,80.54
2023-04-27T04:25:25.479Z,80.32
2023-04-27T04:26:21.107Z,80.25
2023-04-27T04:27:16.117Z,80.25
2023-04-27T04:28:11.453Z,80.21
2023-04-27T04:29:07.958Z,80.22
2023-04-27T04:30:02.104Z,80.23
2023-04-27T04:30:57.322Z,80.36
2023-04-27T04:31:52.751Z,80.50
2023-04-27T04:32:47.892Z,80.32
2023-04-27T04:33:43.198Z,80.21
2023-04-27T04:34:38.401Z,80.25
2023-04-27T04:35:33.938Z,80.65
2023-04-27T04:36:29.004Z,80.73
2023-04-27T04:37:24.340Z,80.77
2023-04-27T04:38:19.737Z,80.81
2023-04-27T04:39:15.381Z,80.81
2023-04-27T04:40:10.469Z,80.78
2023-04-27T04:41:05.992Z,80.74
2023-04-27T04:42:01.084Z,80.67
2023-04-27T04:42:56.437Z,80.69
2023-04-27T04:43:51.941Z,80.58
2023-04-27T04:44:47.226Z,80.56
2023-04-27T04:45:42.829Z,80.58
2023-04-27T04:46:38.011Z,80.50
2023-04-27T04:47:33.300Z,80.50
2023-04-27T04:48:28.702Z,80.51
2023-04-27T04:49:23.970Z,80.50
2023-04-27T04:50:19.404Z,80.50
2023-04-27T04:51:14.662Z,80.50
2023-04-27T04:52:10.100Z,80.57
2023-04-27T04:53:05.539Z,80.60
2023-04-27T04:55:24.762Z,81.11
2023-04-27T04:56:22.817Z,81.18
2023-04-27T04:57:15.400Z,81.08
2023-04-27T04:58:10.857Z,80.98
2023-04-27T04:59:06.216Z,80.92
2023-04-27T05:00:01.618Z,80.92
2023-04-27T05:00:56.915Z,80.94
2023-04-27T05:01:52.457Z,80.92
2023-04-27T05:02:47.784Z,80.92
2023-04-27T05:03:43.322Z,80.85
2023-04-27T05:04:38.695Z,80.76
2023-04-27T05:05:34.174Z,80.78
2023-04-27T05:06:29.354Z,80.74
2023-04-27T05:07:25.154Z,80.58
2023-04-27T05:08:20.266Z,80.46
2023-04-27T05:09:15.802Z,80.32
2023-04-27T05:10:11.275Z,80.05
2023-04-27T05:11:06.575Z,79.83
2023-04-27T05:12:01.972Z,79.76
2023-04-27T05:12:57.261Z,79.78
2023-04-27T05:13:52.575Z,79.89
2023-04-27T05:14:48.044Z,80.03
2023-04-27T05:15:43.887Z,80.17
2023-04-27T05:16:39.111Z,80.27
2023-04-27T05:17:34.353Z,80.24
2023-04-27T05:18:29.696Z,80.24
2023-04-27T05:19:25.042Z,80.36
2023-04-27T05:20:20.804Z,80.41
2023-04-27T05:21:15.804Z,80.51
2023-04-27T05:22:11.273Z,80.47
2023-04-27T05:23:06.690Z,80.39
2023-04-27T05:24:02.071Z,80.24
2023-04-27T05:24:57.380Z,80.04
2023-04-27T05:25:53.144Z,79.93
2023-04-27T05:26:48.201Z,79.76
2023-04-27T05:27:43.651Z,79.75
2023-04-27T05:28:39.083Z,79.58
2023-04-27T05:29:34.448Z,79.38
2023-04-27T05:30:29.787Z,79.20
2023-04-27T05:31:25.188Z,79.07
2023-04-27T05:32:20.463Z,78.91
2023-04-27T05:33:15.924Z,78.91
2023-04-27T05:34:11.243Z,78.81
2023-04-27T05:35:06.831Z,78.73
2023-04-27T05:36:02.153Z,78.65
2023-04-27T05:36:57.565Z,78.64
2023-04-27T05:37:52.897Z,78.47
2023-04-27T05:38:48.272Z,78.45
2023-04-27T05:39:43.561Z,78.55
2023-04-27T05:40:39.234Z,78.75
2023-04-27T05:41:34.431Z,80.13
2023-04-27T05:42:29.930Z,81.48
2023-04-27T05:43:25.266Z,82.12
2023-04-27T05:44:20.667Z,81.66
2023-04-27T05:45:16.159Z,80.77
2023-04-27T05:46:11.669Z,79.88
2023-04-27T05:47:06.800Z,79.47
2023-04-27T05:48:02.255Z,79.09
2023-04-27T05:48:58.074Z,78.89
2023-04-27T05:49:53.119Z,78.79
2023-04-27T05:50:48.461Z,78.53
2023-04-27T05:51:43.779Z,78.39
2023-04-27T05:52:38.997Z,78.30
2023-04-27T05:53:34.448Z,77.98
2023-04-27T05:54:29.761Z,77.57
2023-04-27T05:55:25.270Z,77.60
2023-04-27T05:56:20.717Z,77.57
2023-04-27T05:57:16.077Z,77.74
2023-04-27T05:58:11.434Z,77.60
2023-04-27T05:59:07.177Z,77.44
2023-04-27T06:00:02.398Z,77.19
2023-04-27T06:00:57.940Z,76.95
2023-04-27T06:01:53.250Z,76.67
2023-04-27T06:02:48.735Z,76.53
2023-04-27T06:03:44.184Z,76.19
2023-04-27T06:04:39.423Z,75.88
2023-04-27T06:05:34.968Z,75.58
2023-04-27T06:06:30.368Z,75.31
2023-04-27T06:07:25.549Z,75.20
2023-04-27T06:08:21.071Z,75.19
2023-04-27T06:09:16.619Z,75.06
2023-04-27T06:10:11.901Z,74.87
2023-04-27T06:11:07.375Z,75.02
2023-04-27T06:12:02.592Z,74.90
2023-04-27T06:12:58.003Z,74.77
2023-04-27T06:13:53.449Z,74.49
2023-04-27T06:14:48.774Z,74.31
2023-04-27T06:15:44.404Z,74.27
2023-04-27T06:16:39.594Z,74.20
2023-04-27T06:17:35.011Z,74.14
2023-04-27T06:18:30.275Z,73.91
2023-04-27T06:19:25.856Z,73.54
2023-04-27T06:20:21.057Z,73.12
2023-04-27T06:21:16.667Z,73.04
2023-04-27T06:22:11.865Z,73.02
2023-04-27T06:23:07.313Z,72.97
2023-04-27T06:24:02.742Z,72.67
2023-04-27T06:24:58.328Z,72.49
2023-04-27T06:25:53.661Z,72.35
2023-04-27T06:26:49.246Z,72.18
2023-04-27T06:27:44.437Z,72.05
2023-04-27T06:28:39.926Z,72.11
2023-04-27T06:29:35.481Z,71.84
2023-04-27T06:30:30.771Z,71.77
2023-04-27T06:31:26.195Z,71.36
2023-04-27T06:32:21.559Z,71.13
2023-04-27T06:33:17.006Z,70.84
2023-04-27T06:34:12.478Z,70.59
2023-04-27T06:35:07.798Z,70.66
2023-04-27T06:36:03.243Z,70.54
2023-04-27T06:36:58.697Z,70.43
2023-04-27T06:37:54.073Z,70.43
2023-04-27T06:38:49.461Z,70.68
2023-04-27T06:39:45.115Z,70.56
2023-04-27T06:40:40.529Z,69.71
2023-04-27T06:41:36.025Z,69.14
2023-04-27T06:42:31.348Z,68.79
2023-04-27T06:43:26.845Z,68.58
2023-04-27T06:44:22.168Z,68.52
2023-04-27T06:45:17.493Z,68.65
2023-04-27T06:46:12.844Z,68.47
2023-04-27T06:47:08.391Z,68.26
2023-04-27T06:48:03.842Z,68.24
2023-04-27T06:48:59.204Z,68.02
2023-04-27T06:49:54.510Z,67.85
2023-04-27T06:50:50.181Z,67.87
2023-04-27T06:51:45.683Z,67.59
2023-04-27T06:52:40.947Z,67.53
2023-04-27T06:53:36.294Z,67.65
2023-04-27T06:54:31.796Z,67.67
2023-04-27T06:55:27.276Z,67.57
2023-04-27T06:56:22.788Z,67.87
2023-04-27T06:57:18.143Z,68.16
2023-04-27T06:58:13.785Z,67.85
2023-04-27T06:59:09.242Z,67.46
2023-04-27T07:00:04.768Z,67.14
2023-04-27T07:01:00.283Z,67.48
2023-04-27T07:01:55.865Z,67.70
2023-04-27T07:02:51.163Z,67.88
2023-04-27T07:03:46.897Z,67.95
2023-04-27T07:04:42.190Z,67.45
2023-04-27T07:05:37.747Z,67.29
2023-04-27T07:06:33.548Z,66.88
2023-04-27T07:07:28.526Z,66.53
2023-04-27T07:08:23.845Z,66.29
2023-04-27T07:09:27.038Z,66.42
2023-04-27T07:10:15.680Z,66.44
2023-04-27T07:11:10.249Z,66.41
2023-04-27T07:12:05.454Z,66.15
2023-04-27T07:13:01.026Z,66.16
2023-04-27T07:13:56.512Z,66.29
2023-04-27T07:14:51.964Z,67.25
2023-04-27T07:15:47.427Z,67.45
2023-04-27T07:16:43.046Z,68.18
2023-04-27T07:17:38.321Z,68.15
2023-04-27T07:18:33.656Z,68.62
2023-04-27T07:19:29.006Z,69.08
2023-04-27T07:20:24.328Z,68.54
2023-04-27T07:21:19.761Z,67.27
2023-04-27T07:22:15.072Z,66.63
2023-04-27T07:23:10.288Z,66.90
2023-04-27T07:24:05.696Z,68.50
2023-04-27T07:25:01.184Z,68.15
2023-04-27T07:25:56.465Z,67.94
2023-04-27T07:26:52.232Z,67.26
2023-04-27T07:27:47.496Z,66.81
2023-04-27T07:28:43.052Z,65.88
2023-04-27T07:29:38.413Z,66.60
2023-04-27T07:30:33.863Z,65.52
2023-04-27T07:31:29.363Z,64.61
2023-04-27T07:32:24.766Z,64.68
2023-04-27T07:33:20.262Z,65.57
2023-04-27T07:34:15.825Z,66.42
2023-04-27T07:35:11.296Z,65.24
2023-04-27T07:36:06.877Z,63.92
2023-04-27T07:37:02.109Z,63.65
2023-04-27T07:37:57.614Z,64.52
2023-04-27T07:38:52.848Z,64.18
2023-04-27T07:39:48.370Z,63.98
2023-04-27T07:40:44.862Z,63.91
2023-04-27T07:41:39.309Z,63.91
2023-04-27T07:42:34.750Z,64.20
2023-04-27T07:43:30.197Z,64.74
2023-04-27T07:44:25.590Z,62.49
2023-04-27T07:45:21.303Z,62.67
2023-04-27T07:46:17.062Z,62.21
2023-04-27T07:47:12.336Z,61.77
2023-04-27T07:48:07.737Z,61.79
2023-04-27T07:49:03.200Z,62.01
2023-04-27T07:49:58.528Z,62.36
2023-04-27T07:50:54.250Z,62.16
2023-04-27T07:51:49.525Z,63.16
2023-04-27T07:52:45.024Z,62.73
2023-04-27T07:53:40.405Z,62.42
2023-04-27T07:54:35.919Z,62.75
2023-04-27T07:55:31.393Z,62.16
2023-04-27T07:56:27.053Z,61.12
2023-04-27T07:57:22.260Z,61.35
2023-04-27T07:58:17.757Z,61.19
2023-04-27T07:59:13.473Z,59.63
2023-04-27T08:00:08.726Z,60.21
2023-04-27T08:01:04.498Z,60.05
2023-04-27T08:02:11.237Z,59.99
2023-04-27T08:02:56.249Z,60.45
2023-04-27T08:03:50.818Z,59.53
2023-04-27T08:04:46.642Z,59.69
2023-04-27T08:05:42.323Z,60.52
2023-04-27T08:06:37.925Z,60.25
2023-04-27T08:07:32.950Z,60.68
2023-04-27T08:08:28.168Z,61.53
2023-04-27T08:09:23.633Z,61.53
2023-04-27T08:10:19.026Z,60.19
2023-04-27T08:11:14.908Z,59.56
2023-04-27T08:12:10.250Z,59.74
2023-04-27T08:13:05.614Z,60.23
2023-04-27T08:14:01.124Z,60.41
2023-04-27T08:14:56.469Z,60.48
2023-04-27T08:15:51.952Z,60.28
2023-04-27T08:16:47.550Z,60.65
2023-04-27T08:17:42.892Z,59.83
2023-04-27T08:18:38.411Z,59.90
2023-04-27T08:19:33.758Z,60.27
2023-04-27T08:20:29.282Z,60.58
2023-04-27T08:21:24.463Z,59.54
2023-04-27T08:22:19.973Z,60.35
2023-04-27T08:23:15.272Z,60.11
2023-04-27T08:24:10.916Z,59.87
2023-04-27T08:25:06.242Z,58.99
2023-04-27T08:26:01.900Z,59.10
2023-04-27T08:26:57.118Z,58.83
2023-04-27T08:27:52.616Z,59.04
2023-04-27T08:28:48.097Z,58.94
2023-04-27T08:29:43.596Z,58.42
2023-04-27T08:30:39.217Z,58.47
2023-04-27T08:31:34.591Z,58.18
2023-04-27T08:32:30.126Z,58.10
2023-04-27T08:33:25.585Z,57.79
2023-04-27T08:34:21.170Z,57.79
2023-04-27T08:35:16.864Z,57.44
2023-04-27T08:36:12.168Z,56.59
2023-04-27T08:37:07.792Z,55.90
2023-04-27T08:38:03.131Z,55.54
2023-04-27T08:38:58.521Z,55.17
2023-04-27T08:39:54.030Z,55.18
2023-04-27T08:40:49.520Z,55.50
2023-04-27T08:41:45.152Z,55.08
2023-04-27T08:42:40.721Z,55.04
2023-04-27T08:43:36.256Z,54.45
2023-04-27T08:44:31.904Z,53.32
2023-04-27T08:45:27.257Z,53.13
2023-04-27T08:46:22.828Z,53.92
2023-04-27T08:47:23.547Z,53.73
2023-04-27T08:48:14.569Z,53.43
2023-04-27T08:49:09.079Z,52.80
2023-04-27T08:50:04.680Z,52.35
2023-04-27T08:50:59.863Z,52.13
2023-04-27T08:51:55.215Z,52.28
2023-04-27T08:52:50.668Z,52.14
2023-04-27T08:53:45.928Z,52.54
2023-04-27T08:54:41.414Z,52.92
2023-04-27T08:55:36.922Z,53.86
2023-04-27T08:56:32.403Z,52.91
2023-04-27T08:57:27.823Z,52.75
2023-04-27T08:58:23.295Z,52.62
2023-04-27T08:59:19.055Z,52.13
2023-04-27T09:00:14.531Z,51.08
2023-04-27T09:01:09.782Z,51.98
2023-04-27T09:02:05.388Z,52.93
2023-04-27T09:03:00.935Z,53.84
2023-04-27T09:03:56.549Z,54.15
2023-04-27T09:04:52.149Z,54.57
2023-04-27T09:06:00.663Z,54.52
2023-04-27T09:06:43.786Z,54.32
2023-04-27T09:07:38.159Z,53.42
2023-04-27T09:08:33.936Z,52.96
2023-04-27T09:09:29.011Z,52.61
2023-04-27T09:10:24.676Z,51.09
2023-04-27T09:11:20.045Z,50.51
2023-04-27T09:12:15.590Z,49.81
2023-04-27T09:13:10.929Z,48.92
2023-04-27T09:14:06.437Z,48.30
2023-04-27T09:15:01.790Z,48.32
2023-04-27T09:15:57.294Z,48.54
2023-04-27T09:16:52.730Z,47.47
2023-04-27T09:17:48.273Z,48.46
2023-04-27T09:18:43.932Z,48.29
2023-04-27T09:19:39.416Z,49.33
2023-04-27T09:20:34.737Z,51.13
2023-04-27T09:21:30.109Z,50.53
2023-04-27T09:22:25.349Z,50.16
2023-04-27T09:23:20.731Z,49.40
2023-04-27T09:24:16.256Z,48.75
2023-04-27T09:25:11.764Z,48.86
2023-04-27T09:26:07.252Z,48.54
2023-04-27T09:27:02.742Z,49.38
2023-04-27T09:27:58.469Z,49.69
2023-04-27T09:28:53.442Z,49.81
2023-04-27T09:29:49.090Z,50.12
2023-04-27T09:30:44.457Z,50.24
2023-04-27T09:31:40.093Z,49.82
2023-04-27T09:32:35.335Z,50.11
2023-04-27T09:33:30.736Z,49.63
2023-04-27T09:34:26.120Z,48.62
2023-04-27T09:35:21.620Z,48.87
2023-04-27T09:36:16.844Z,48.84
2023-04-27T09:37:12.318Z,48.55
2023-04-27T09:38:07.811Z,48.81
2023-04-27T09:39:03.278Z,48.53
2023-04-27T09:39:59.048Z,47.55
2023-04-27T09:40:54.215Z,47.98
2023-04-27T09:41:49.705Z,49.13
2023-04-27T09:42:44.953Z,49.88
2023-04-27T09:43:40.453Z,49.76
2023-04-27T09:44:35.813Z,49.28
2023-04-27T09:45:31.533Z,49.35
2023-04-27T09:46:26.896Z,48.71
2023-04-27T09:47:22.416Z,48.52
2023-04-27T09:48:17.797Z,47.45
2023-04-27T09:49:13.294Z,47.95
2023-04-27T09:50:08.792Z,47.51
2023-04-27T09:51:04.020Z,47.55
2023-04-27T09:51:59.657Z,47.85
2023-04-27T09:52:55.007Z,47.86
2023-04-27T09:53:50.435Z,48.10
2023-04-27T09:54:45.829Z,48.38
2023-04-27T09:55:41.288Z,47.85
2023-04-27T09:56:36.671Z,47.91
2023-04-27T09:57:32.209Z,48.32
2023-04-27T09:58:27.543Z,49.09
2023-04-27T09:59:23.008Z,49.12
2023-04-27T10:00:18.528Z,49.04
2023-04-27T10:01:13.988Z,49.64
2023-04-27T10:02:23.595Z,50.36
2023-04-27T10:03:05.964Z,50.15
2023-04-27T10:04:00.776Z,50.28
2023-04-27T10:04:55.973Z,50.25
2023-04-27T10:05:51.350Z,48.65
2023-04-27T10:06:46.743Z,48.33
2023-04-27T10:07:42.204Z,48.12
2023-04-27T10:08:37.796Z,48.12
2023-04-27T10:09:33.092Z,47.97
2023-04-27T10:10:28.525Z,47.54
2023-04-27T10:11:23.957Z,46.72
2023-04-27T10:12:19.354Z,46.60
2023-04-27T10:13:14.696Z,46.69
2023-04-27T10:14:10.135Z,47.34
2023-04-27T10:15:05.596Z,47.09
2023-04-27T10:16:00.960Z,46.43
2023-04-27T10:16:56.445Z,47.20
2023-04-27T10:17:51.862Z,46.11
2023-04-27T10:18:47.389Z,45.78
2023-04-27T10:19:42.772Z,45.31
2023-04-27T10:20:38.311Z,45.30
2023-04-27T10:21:33.552Z,45.45
2023-04-27T10:22:28.980Z,45.61
2023-04-27T10:23:24.228Z,45.84
2023-04-27T10:24:19.668Z,45.86
2023-04-27T10:25:15.074Z,45.73
2023-04-27T10:26:10.464Z,46.17
2023-04-27T10:27:05.889Z,46.88
2023-04-27T10:28:01.346Z,46.50
2023-04-27T10:28:56.745Z,45.05
2023-04-27T10:29:52.158Z,45.32
2023-04-27T10:30:47.714Z,45.29
2023-04-27T10:31:43.103Z,44.24
2023-04-27T10:32:38.501Z,43.86
2023-04-27T10:33:33.777Z,44.06
2023-04-27T10:34:29.180Z,43.74
2023-04-27T10:35:24.615Z,43.91
2023-04-27T10:36:20.113Z,45.48
2023-04-27T10:37:15.508Z,45.22
2023-04-27T10:38:11.116Z,45.32
2023-04-27T10:39:06.595Z,45.19
2023-04-27T10:40:01.834Z,44.55
2023-04-27T10:40:57.294Z,44.90
2023-04-27T10:41:52.732Z,45.10
2023-04-27T10:42:48.127Z,44.81
2023-04-27T10:43:43.389Z,44.75
2023-04-27T10:44:38.925Z,44.55
2023-04-27T10:45:34.325Z,44.94
2023-04-27T10:46:29.698Z,45.64
2023-04-27T10:47:25.054Z,46.51
2023-04-27T10:48:20.482Z,47.24
2023-04-27T10:49:15.984Z,46.58
2023-04-27T10:50:11.261Z,46.73
2023-04-27T10:51:06.661Z,45.87
2023-04-27T10:52:02.125Z,45.61
2023-04-27T10:52:58.801Z,44.98
2023-04-27T10:53:53.023Z,44.75
2023-04-27T10:54:48.560Z,45.94
2023-04-27T10:55:43.721Z,46.31
2023-04-27T10:56:39.098Z,46.66
2023-04-27T10:57:34.504Z,46.41
2023-04-27T10:58:41.538Z,46.30
2023-04-27T10:59:26.362Z,46.79
2023-04-27T11:00:20.833Z,46.99
2023-04-27T11:01:16.410Z,46.28
2023-04-27T11:02:11.640Z,46.05
2023-04-27T11:03:07.231Z,46.53
2023-04-27T11:04:02.485Z,46.80
2023-04-27T11:04:57.982Z,45.95
2023-04-27T11:05:53.222Z,45.64
2023-04-27T11:06:48.634Z,45.42
2023-04-27T11:07:44.040Z,45.66
2023-04-27T11:08:39.681Z,45.47
2023-04-27T11:09:35.073Z,46.30
2023-04-27T11:10:30.513Z,45.37
2023-04-27T11:11:25.832Z,44.75
2023-04-27T11:12:21.373Z,44.24
2023-04-27T11:13:16.748Z,43.99
2023-04-27T11:14:12.286Z,44.19
2023-04-27T11:15:07.733Z,45.02
2023-04-27T11:16:03.037Z,46.08
2023-04-27T11:16:58.564Z,46.88
2023-04-27T11:17:54.038Z,44.07
2023-04-27T11:18:49.610Z,43.53
2023-04-27T11:19:45.047Z,43.07
2023-04-27T11:20:40.747Z,42.52
2023-04-27T11:21:35.996Z,43.12
2023-04-27T11:22:31.015Z,43.01
2023-04-27T11:23:26.032Z,42.89
2023-04-27T11:24:21.041Z,42.76
2023-04-27T11:25:16.228Z,42.49
2023-04-27T11:26:11.086Z,43.12
2023-04-27T11:27:06.039Z,42.88
2023-04-27T11:28:01.213Z,43.27
2023-04-27T11:28:56.206Z,44.69
2023-04-27T11:29:51.466Z,45.46
2023-04-27T11:30:46.625Z,45.31
2023-04-27T11:31:41.645Z,46.17
2023-04-27T11:32:36.673Z,46.46
2023-04-27T11:33:31.755Z,46.97
2023-04-27T11:34:26.836Z,47.08
2023-04-27T11:35:22.124Z,46.63
2023-04-27T11:36:20.003Z,46.27
2023-04-27T11:37:18.384Z,46.30
2023-04-27T11:38:09.923Z,46.83
2023-04-27T11:39:05.227Z,45.88
2023-04-27T11:40:00.972Z,45.44
2023-04-27T11:40:56.343Z,45.71
2023-04-27T11:41:51.861Z,46.06
2023-04-27T11:42:47.170Z,45.66
2023-04-27T11:43:42.893Z,45.61
2023-04-27T11:44:38.203Z,46.14
2023-04-27T11:45:33.674Z,46.53
2023-04-27T11:46:28.960Z,46.69
2023-04-27T11:47:24.346Z,46.76
2023-04-27T11:48:19.788Z,46.70
2023-04-27T11:49:15.397Z,46.85
2023-04-27T11:50:11.095Z,46.41
2023-04-27T11:51:06.165Z,46.99
2023-04-27T11:52:01.643Z,47.47
2023-04-27T11:52:56.706Z,47.90
2023-04-27T11:53:51.788Z,47.58